sensor_id;sensor_type;location;lat;lon;timestamp;temperature;humidity
18085;DHT22;9169;44.492;11.372;2022-10-17T00:01:43;22.10;52.40
18085;DHT22;9169;44.492;11.372;2022-10-17T00:04:12;22.10;52.40
18085;DHT22;9169;44.492;11.372;2022-10-17T00:06:39;22.10;52.40
18085;DHT22;9169;44.492;11.372;2022-10-17T00:09:06;22.10;52.40
18085;DHT22;9169;44.492;11.372;2022-10-17T00:11:34;22.00;52.40
18085;DHT22;9169;44.492;11.372;2022-10-17T00:14:02;22.00;52.30
18085;DHT22;9169;44.492;11.372;2022-10-17T00:16:31;22.00;52.30
18085;DHT22;9169;44.492;11.372;2022-10-17T00:18:59;22.00;52.30
18085;DHT22;9169;44.492;11.372;2022-10-17T00:21:27;22.00;52.30
18085;DHT22;9169;44.492;11.372;2022-10-17T00:23:54;22.00;52.40
18085;DHT22;9169;44.492;11.372;2022-10-17T00:26:21;21.90;52.30
18085;DHT22;9169;44.492;11.372;2022-10-17T00:28:50;21.90;52.40
18085;DHT22;9169;44.492;11.372;2022-10-17T00:31:19;22.00;52.50
18085;DHT22;9169;44.492;11.372;2022-10-17T00:33:47;21.90;52.40
18085;DHT22;9169;44.492;11.372;2022-10-17T00:36:15;21.90;52.40
18085;DHT22;9169;44.492;11.372;2022-10-17T00:38:45;21.90;52.30
18085;DHT22;9169;44.492;11.372;2022-10-17T00:41:15;21.90;52.40
18085;DHT22;9169;44.492;11.372;2022-10-17T00:43:53;21.90;52.40
18085;DHT22;9169;44.492;11.372;2022-10-17T00:46:21;21.90;52.40
18085;DHT22;9169;44.492;11.372;2022-10-17T00:48:50;21.90;52.40
18085;DHT22;9169;44.492;11.372;2022-10-17T00:51:22;21.80;52.40
18085;DHT22;9169;44.492;11.372;2022-10-17T00:53:52;21.80;52.50
18085;DHT22;9169;44.492;11.372;2022-10-17T00:56:20;21.80;52.40
18085;DHT22;9169;44.492;11.372;2022-10-17T00:58:47;21.80;52.40
18085;DHT22;9169;44.492;11.372;2022-10-17T01:01:14;21.80;52.40
18085;DHT22;9169;44.492;11.372;2022-10-17T01:03:41;21.80;52.40
18085;DHT22;9169;44.492;11.372;2022-10-17T01:06:08;21.80;52.40
18085;DHT22;9169;44.492;11.372;2022-10-17T01:08:35;21.70;52.30
18085;DHT22;9169;44.492;11.372;2022-10-17T01:11:12;21.80;52.40
18085;DHT22;9169;44.492;11.372;2022-10-17T01:13:47;21.70;52.50
18085;DHT22;9169;44.492;11.372;2022-10-17T01:16:18;21.70;52.50
18085;DHT22;9169;44.492;11.372;2022-10-17T01:18:55;21.70;52.60
18085;DHT22;9169;44.492;11.372;2022-10-17T01:21:30;21.60;52.60
18085;DHT22;9169;44.492;11.372;2022-10-17T01:27:33;21.60;52.50
18085;DHT22;9169;44.492;11.372;2022-10-17T01:33:26;21.60;52.30
18085;DHT22;9169;44.492;11.372;2022-10-17T01:35:59;21.60;52.30
18085;DHT22;9169;44.492;11.372;2022-10-17T01:38:32;21.50;52.40
18085;DHT22;9169;44.492;11.372;2022-10-17T01:41:03;21.50;52.40
18085;DHT22;9169;44.492;11.372;2022-10-17T01:43:36;21.50;52.50
18085;DHT22;9169;44.492;11.372;2022-10-17T01:46:09;21.50;52.60
18085;DHT22;9169;44.492;11.372;2022-10-17T01:48:39;21.50;52.70
18085;DHT22;9169;44.492;11.372;2022-10-17T01:51:12;21.50;52.70
18085;DHT22;9169;44.492;11.372;2022-10-17T01:53:46;21.40;52.70
18085;DHT22;9169;44.492;11.372;2022-10-17T01:56:15;21.40;52.80
18085;DHT22;9169;44.492;11.372;2022-10-17T01:58:48;21.40;52.80
18085;DHT22;9169;44.492;11.372;2022-10-17T02:01:16;21.40;52.80
18085;DHT22;9169;44.492;11.372;2022-10-17T02:03:48;21.40;52.80
18085;DHT22;9169;44.492;11.372;2022-10-17T02:06:15;21.40;52.80
18085;DHT22;9169;44.492;11.372;2022-10-17T02:08:43;21.40;52.80
18085;DHT22;9169;44.492;11.372;2022-10-17T02:11:14;21.40;53.00
18085;DHT22;9169;44.492;11.372;2022-10-17T02:14:02;21.40;53.10
18085;DHT22;9169;44.492;11.372;2022-10-17T02:16:35;21.30;53.10
18085;DHT22;9169;44.492;11.372;2022-10-17T02:19:24;21.30;53.10
18085;DHT22;9169;44.492;11.372;2022-10-17T02:22:03;21.30;53.10
18085;DHT22;9169;44.492;11.372;2022-10-17T02:24:36;21.30;53.00
18085;DHT22;9169;44.492;11.372;2022-10-17T02:27:12;21.30;53.00
18085;DHT22;9169;44.492;11.372;2022-10-17T02:29:46;21.30;53.00
18085;DHT22;9169;44.492;11.372;2022-10-17T02:32:16;21.30;53.00
18085;DHT22;9169;44.492;11.372;2022-10-17T02:34:49;21.30;52.90
18085;DHT22;9169;44.492;11.372;2022-10-17T02:37:21;21.30;53.00
18085;DHT22;9169;44.492;11.372;2022-10-17T02:39:49;21.20;53.00
18085;DHT22;9169;44.492;11.372;2022-10-17T02:42:17;21.20;53.00
18085;DHT22;9169;44.492;11.372;2022-10-17T02:44:46;21.20;52.90
18085;DHT22;9169;44.492;11.372;2022-10-17T02:47:18;21.20;52.90
18085;DHT22;9169;44.492;11.372;2022-10-17T02:49:50;21.20;53.00
18085;DHT22;9169;44.492;11.372;2022-10-17T02:52:23;21.20;52.90
18085;DHT22;9169;44.492;11.372;2022-10-17T02:54:57;21.20;53.00
18085;DHT22;9169;44.492;11.372;2022-10-17T02:57:30;21.20;53.00
18085;DHT22;9169;44.492;11.372;2022-10-17T02:59:58;21.20;53.00
18085;DHT22;9169;44.492;11.372;2022-10-17T03:02:27;21.20;53.00
18085;DHT22;9169;44.492;11.372;2022-10-17T03:04:55;21.20;52.90
18085;DHT22;9169;44.492;11.372;2022-10-17T03:07:22;21.20;52.90
18085;DHT22;9169;44.492;11.372;2022-10-17T03:09:49;21.10;52.90
18085;DHT22;9169;44.492;11.372;2022-10-17T03:12:16;21.10;52.90
18085;DHT22;9169;44.492;11.372;2022-10-17T03:14:43;21.10;52.90
18085;DHT22;9169;44.492;11.372;2022-10-17T03:17:09;21.10;52.90
18085;DHT22;9169;44.492;11.372;2022-10-17T03:19:36;21.10;53.00
18085;DHT22;9169;44.492;11.372;2022-10-17T03:22:05;21.10;53.00
18085;DHT22;9169;44.492;11.372;2022-10-17T03:24:32;21.10;53.00
18085;DHT22;9169;44.492;11.372;2022-10-17T03:26:59;21.10;53.00
18085;DHT22;9169;44.492;11.372;2022-10-17T03:29:26;21.10;53.00
18085;DHT22;9169;44.492;11.372;2022-10-17T03:31:53;21.00;52.90
18085;DHT22;9169;44.492;11.372;2022-10-17T03:34:20;21.00;52.90
18085;DHT22;9169;44.492;11.372;2022-10-17T03:36:47;21.00;53.20
18085;DHT22;9169;44.492;11.372;2022-10-17T03:39:15;21.00;53.20
18085;DHT22;9169;44.492;11.372;2022-10-17T03:41:42;20.90;53.20
18085;DHT22;9169;44.492;11.372;2022-10-17T03:44:09;20.90;53.10
18085;DHT22;9169;44.492;11.372;2022-10-17T03:46:36;20.90;53.20
18085;DHT22;9169;44.492;11.372;2022-10-17T03:49:03;20.90;53.20
18085;DHT22;9169;44.492;11.372;2022-10-17T03:51:32;20.90;53.30
18085;DHT22;9169;44.492;11.372;2022-10-17T03:53:58;20.90;53.40
18085;DHT22;9169;44.492;11.372;2022-10-17T03:56:27;20.90;53.40
18085;DHT22;9169;44.492;11.372;2022-10-17T03:58:54;20.90;53.40
18085;DHT22;9169;44.492;11.372;2022-10-17T04:01:21;20.90;53.30
18085;DHT22;9169;44.492;11.372;2022-10-17T04:03:49;20.80;53.20
18085;DHT22;9169;44.492;11.372;2022-10-17T04:06:16;20.80;53.20
18085;DHT22;9169;44.492;11.372;2022-10-17T04:08:43;20.80;53.20
18085;DHT22;9169;44.492;11.372;2022-10-17T04:11:14;20.80;53.30
18085;DHT22;9169;44.492;11.372;2022-10-17T04:13:43;20.80;53.30
18085;DHT22;9169;44.492;11.372;2022-10-17T04:16:12;20.80;53.30
18085;DHT22;9169;44.492;11.372;2022-10-17T04:18:39;20.80;53.30
18085;DHT22;9169;44.492;11.372;2022-10-17T04:21:07;20.70;53.40
18085;DHT22;9169;44.492;11.372;2022-10-17T04:23:34;20.70;53.40
18085;DHT22;9169;44.492;11.372;2022-10-17T04:26:02;20.70;53.40
18085;DHT22;9169;44.492;11.372;2022-10-17T04:28:31;20.70;53.50
18085;DHT22;9169;44.492;11.372;2022-10-17T04:31:01;20.70;53.50
18085;DHT22;9169;44.492;11.372;2022-10-17T04:33:30;20.70;53.60
18085;DHT22;9169;44.492;11.372;2022-10-17T04:35:58;20.70;53.50
18085;DHT22;9169;44.492;11.372;2022-10-17T04:38:26;20.70;53.50
18085;DHT22;9169;44.492;11.372;2022-10-17T04:40:53;20.70;53.70
18085;DHT22;9169;44.492;11.372;2022-10-17T04:43:20;20.70;53.60
18085;DHT22;9169;44.492;11.372;2022-10-17T04:45:47;20.70;53.80
18085;DHT22;9169;44.492;11.372;2022-10-17T04:48:15;20.60;53.80
18085;DHT22;9169;44.492;11.372;2022-10-17T04:50:52;20.60;53.80
18085;DHT22;9169;44.492;11.372;2022-10-17T04:53:19;20.60;53.80
18085;DHT22;9169;44.492;11.372;2022-10-17T04:55:46;20.60;53.70
18085;DHT22;9169;44.492;11.372;2022-10-17T04:58:13;20.60;53.80
18085;DHT22;9169;44.492;11.372;2022-10-17T05:00:40;20.60;53.80
18085;DHT22;9169;44.492;11.372;2022-10-17T05:03:07;20.60;54.30
18085;DHT22;9169;44.492;11.372;2022-10-17T05:05:37;20.60;53.90
18085;DHT22;9169;44.492;11.372;2022-10-17T05:08:05;20.50;53.80
18085;DHT22;9169;44.492;11.372;2022-10-17T05:10:35;20.50;53.90
18085;DHT22;9169;44.492;11.372;2022-10-17T05:13:02;20.50;54.10
18085;DHT22;9169;44.492;11.372;2022-10-17T05:15:29;20.50;54.10
18085;DHT22;9169;44.492;11.372;2022-10-17T05:17:56;20.40;54.10
18085;DHT22;9169;44.492;11.372;2022-10-17T05:20:25;20.40;54.00
18085;DHT22;9169;44.492;11.372;2022-10-17T05:22:53;20.40;54.00
18085;DHT22;9169;44.492;11.372;2022-10-17T05:25:20;20.40;54.20
18085;DHT22;9169;44.492;11.372;2022-10-17T05:27:48;20.40;54.10
18085;DHT22;9169;44.492;11.372;2022-10-17T05:30:16;20.40;54.20
18085;DHT22;9169;44.492;11.372;2022-10-17T05:32:43;20.40;54.10
18085;DHT22;9169;44.492;11.372;2022-10-17T05:35:10;20.40;54.10
18085;DHT22;9169;44.492;11.372;2022-10-17T05:37:37;20.40;54.00
18085;DHT22;9169;44.492;11.372;2022-10-17T05:40:06;20.40;54.00
18085;DHT22;9169;44.492;11.372;2022-10-17T05:42:33;20.40;54.00
18085;DHT22;9169;44.492;11.372;2022-10-17T05:45:02;20.40;54.00
18085;DHT22;9169;44.492;11.372;2022-10-17T05:47:29;20.40;54.00
18085;DHT22;9169;44.492;11.372;2022-10-17T05:49:56;20.40;54.00
18085;DHT22;9169;44.492;11.372;2022-10-17T05:52:23;20.40;54.00
18085;DHT22;9169;44.492;11.372;2022-10-17T05:54:50;20.40;54.00
18085;DHT22;9169;44.492;11.372;2022-10-17T05:57:18;20.40;54.00
18085;DHT22;9169;44.492;11.372;2022-10-17T05:59:45;20.40;54.00
18085;DHT22;9169;44.492;11.372;2022-10-17T06:02:12;20.40;54.00
18085;DHT22;9169;44.492;11.372;2022-10-17T06:04:39;20.40;54.00
18085;DHT22;9169;44.492;11.372;2022-10-17T06:07:10;20.40;54.20
18085;DHT22;9169;44.492;11.372;2022-10-17T06:09:37;20.40;54.30
18085;DHT22;9169;44.492;11.372;2022-10-17T06:12:04;20.40;54.40
18085;DHT22;9169;44.492;11.372;2022-10-17T06:14:33;20.40;54.40
18085;DHT22;9169;44.492;11.372;2022-10-17T06:17:00;20.40;54.50
18085;DHT22;9169;44.492;11.372;2022-10-17T06:19:27;20.40;54.50
18085;DHT22;9169;44.492;11.372;2022-10-17T06:21:54;20.50;54.50
18085;DHT22;9169;44.492;11.372;2022-10-17T06:24:21;20.50;54.60
18085;DHT22;9169;44.492;11.372;2022-10-17T06:26:48;20.50;54.80
18085;DHT22;9169;44.492;11.372;2022-10-17T06:29:15;20.50;55.00
18085;DHT22;9169;44.492;11.372;2022-10-17T06:31:44;20.50;55.10
18085;DHT22;9169;44.492;11.372;2022-10-17T06:34:11;20.50;55.20
18085;DHT22;9169;44.492;11.372;2022-10-17T06:36:38;20.50;55.20
18085;DHT22;9169;44.492;11.372;2022-10-17T06:39:04;20.50;55.20
18085;DHT22;9169;44.492;11.372;2022-10-17T06:41:31;20.50;55.30
18085;DHT22;9169;44.492;11.372;2022-10-17T06:43:58;20.50;55.30
18085;DHT22;9169;44.492;11.372;2022-10-17T06:46:25;20.60;55.30
18085;DHT22;9169;44.492;11.372;2022-10-17T06:48:55;20.50;55.30
18085;DHT22;9169;44.492;11.372;2022-10-17T06:51:22;20.60;55.40
18085;DHT22;9169;44.492;11.372;2022-10-17T06:53:49;20.60;55.30
18085;DHT22;9169;44.492;11.372;2022-10-17T06:56:16;20.70;55.40
18085;DHT22;9169;44.492;11.372;2022-10-17T06:58:44;20.70;55.20
18085;DHT22;9169;44.492;11.372;2022-10-17T07:01:12;20.80;55.20
18085;DHT22;9169;44.492;11.372;2022-10-17T07:03:40;20.90;55.20
18085;DHT22;9169;44.492;11.372;2022-10-17T07:06:09;20.90;55.30
18085;DHT22;9169;44.492;11.372;2022-10-17T07:08:37;21.00;55.30
18085;DHT22;9169;44.492;11.372;2022-10-17T07:11:10;21.00;55.20
18085;DHT22;9169;44.492;11.372;2022-10-17T07:13:37;21.10;55.20
18085;DHT22;9169;44.492;11.372;2022-10-17T07:16:04;21.20;55.20
18085;DHT22;9169;44.492;11.372;2022-10-17T07:18:31;21.20;55.10
18085;DHT22;9169;44.492;11.372;2022-10-17T07:20:58;21.30;55.20
18085;DHT22;9169;44.492;11.372;2022-10-17T07:23:27;21.30;55.40
18085;DHT22;9169;44.492;11.372;2022-10-17T07:25:58;21.30;55.20
18085;DHT22;9169;44.492;11.372;2022-10-17T07:28:25;21.40;55.10
18085;DHT22;9169;44.492;11.372;2022-10-17T07:30:52;21.50;55.00
18085;DHT22;9169;44.492;11.372;2022-10-17T07:33:19;21.50;54.90
18085;DHT22;9169;44.492;11.372;2022-10-17T07:35:46;21.60;54.90
18085;DHT22;9169;44.492;11.372;2022-10-17T07:38:13;21.60;54.70
18085;DHT22;9169;44.492;11.372;2022-10-17T07:40:42;21.70;54.90
18085;DHT22;9169;44.492;11.372;2022-10-17T07:43:09;21.80;54.70
18085;DHT22;9169;44.492;11.372;2022-10-17T07:45:36;21.80;54.50
18085;DHT22;9169;44.492;11.372;2022-10-17T07:48:03;21.80;54.40
18085;DHT22;9169;44.492;11.372;2022-10-17T07:50:30;21.90;54.50
18085;DHT22;9169;44.492;11.372;2022-10-17T07:52:57;21.90;54.50
18085;DHT22;9169;44.492;11.372;2022-10-17T07:55:24;22.00;54.50
18085;DHT22;9169;44.492;11.372;2022-10-17T07:57:53;22.00;54.30
18085;DHT22;9169;44.492;11.372;2022-10-17T08:00:20;22.10;54.30
18085;DHT22;9169;44.492;11.372;2022-10-17T08:02:47;22.20;54.20
18085;DHT22;9169;44.492;11.372;2022-10-17T08:05:15;22.20;54.10
18085;DHT22;9169;44.492;11.372;2022-10-17T08:07:41;22.30;54.20
18085;DHT22;9169;44.492;11.372;2022-10-17T08:10:10;22.30;54.40
18085;DHT22;9169;44.492;11.372;2022-10-17T08:12:38;22.40;54.20
18085;DHT22;9169;44.492;11.372;2022-10-17T08:15:08;22.40;54.20
18085;DHT22;9169;44.492;11.372;2022-10-17T08:17:36;22.50;54.20
18085;DHT22;9169;44.492;11.372;2022-10-17T08:20:04;22.50;54.00
18085;DHT22;9169;44.492;11.372;2022-10-17T08:22:31;22.50;53.80
18085;DHT22;9169;44.492;11.372;2022-10-17T08:24:59;22.50;53.60
18085;DHT22;9169;44.492;11.372;2022-10-17T08:27:26;22.60;53.60
18085;DHT22;9169;44.492;11.372;2022-10-17T08:29:53;22.60;53.50
18085;DHT22;9169;44.492;11.372;2022-10-17T08:32:26;22.60;53.50
18085;DHT22;9169;44.492;11.372;2022-10-17T08:34:54;22.60;53.60
18085;DHT22;9169;44.492;11.372;2022-10-17T08:37:21;22.60;53.50
18085;DHT22;9169;44.492;11.372;2022-10-17T08:39:48;22.60;53.50
18085;DHT22;9169;44.492;11.372;2022-10-17T08:42:42;22.60;53.50
18085;DHT22;9169;44.492;11.372;2022-10-17T08:45:17;22.60;53.50
18085;DHT22;9169;44.492;11.372;2022-10-17T08:47:50;22.70;53.50
18085;DHT22;9169;44.492;11.372;2022-10-17T08:50:26;22.70;53.40
18085;DHT22;9169;44.492;11.372;2022-10-17T08:52:56;22.70;53.40
18085;DHT22;9169;44.492;11.372;2022-10-17T08:55:31;22.80;53.40
18085;DHT22;9169;44.492;11.372;2022-10-17T08:57:59;22.80;53.30
18085;DHT22;9169;44.492;11.372;2022-10-17T09:00:28;22.90;53.30
18085;DHT22;9169;44.492;11.372;2022-10-17T09:03:11;22.90;53.20
18085;DHT22;9169;44.492;11.372;2022-10-17T09:05:47;23.00;53.30
18085;DHT22;9169;44.492;11.372;2022-10-17T09:08:26;23.00;53.10
18085;DHT22;9169;44.492;11.372;2022-10-17T09:10:59;23.10;53.10
18085;DHT22;9169;44.492;11.372;2022-10-17T09:13:39;23.20;53.30
18085;DHT22;9169;44.492;11.372;2022-10-17T09:16:24;23.30;53.70
18085;DHT22;9169;44.492;11.372;2022-10-17T09:19:00;23.60;54.00
18085;DHT22;9169;44.492;11.372;2022-10-17T09:21:35;24.10;54.10
18085;DHT22;9169;44.492;11.372;2022-10-17T09:24:11;24.60;54.10
18085;DHT22;9169;44.492;11.372;2022-10-17T09:26:40;25.10;53.90
18085;DHT22;9169;44.492;11.372;2022-10-17T09:29:15;25.70;53.30
18085;DHT22;9169;44.492;11.372;2022-10-17T09:31:47;26.00;52.50
18085;DHT22;9169;44.492;11.372;2022-10-17T09:34:18;26.50;52.10
18085;DHT22;9169;44.492;11.372;2022-10-17T09:36:45;26.80;51.60
18085;DHT22;9169;44.492;11.372;2022-10-17T09:39:13;27.10;50.90
18085;DHT22;9169;44.492;11.372;2022-10-17T09:41:43;27.40;50.60
18085;DHT22;9169;44.492;11.372;2022-10-17T09:44:21;27.80;50.10
18085;DHT22;9169;44.492;11.372;2022-10-17T09:47:05;28.20;49.50
18085;DHT22;9169;44.492;11.372;2022-10-17T09:49:38;28.50;48.60
18085;DHT22;9169;44.492;11.372;2022-10-17T09:52:13;28.80;47.90
18085;DHT22;9169;44.492;11.372;2022-10-17T09:54:43;29.00;46.40
18085;DHT22;9169;44.492;11.372;2022-10-17T09:57:12;29.10;46.00
18085;DHT22;9169;44.492;11.372;2022-10-17T09:59:41;29.20;45.50
18085;DHT22;9169;44.492;11.372;2022-10-17T10:02:15;29.20;45.00
18085;DHT22;9169;44.492;11.372;2022-10-17T10:05:02;29.10;44.70
18085;DHT22;9169;44.492;11.372;2022-10-17T10:07:31;28.80;44.70
18085;DHT22;9169;44.492;11.372;2022-10-17T10:09:59;28.50;44.80
18085;DHT22;9169;44.492;11.372;2022-10-17T10:12:29;28.20;44.90
18085;DHT22;9169;44.492;11.372;2022-10-17T10:14:57;27.90;45.00
18085;DHT22;9169;44.492;11.372;2022-10-17T10:17:36;27.70;45.40
18085;DHT22;9169;44.492;11.372;2022-10-17T10:20:26;27.50;45.60
18085;DHT22;9169;44.492;11.372;2022-10-17T10:23:14;27.40;45.90
18085;DHT22;9169;44.492;11.372;2022-10-17T10:25:51;27.20;46.10
18085;DHT22;9169;44.492;11.372;2022-10-17T10:28:19;27.00;46.30
18085;DHT22;9169;44.492;11.372;2022-10-17T10:30:50;26.90;46.60
18085;DHT22;9169;44.492;11.372;2022-10-17T10:33:19;26.80;46.70
18085;DHT22;9169;44.492;11.372;2022-10-17T10:35:54;26.70;46.90
18085;DHT22;9169;44.492;11.372;2022-10-17T10:38:22;26.60;47.00
18085;DHT22;9169;44.492;11.372;2022-10-17T10:40:51;26.50;47.20
18085;DHT22;9169;44.492;11.372;2022-10-17T10:43:30;26.40;47.30
18085;DHT22;9169;44.492;11.372;2022-10-17T10:45:58;26.40;47.30
18085;DHT22;9169;44.492;11.372;2022-10-17T10:48:29;26.30;47.40
18085;DHT22;9169;44.492;11.372;2022-10-17T10:50:59;26.20;47.50
18085;DHT22;9169;44.492;11.372;2022-10-17T10:53:31;26.20;47.60
18085;DHT22;9169;44.492;11.372;2022-10-17T10:56:03;26.20;47.70
18085;DHT22;9169;44.492;11.372;2022-10-17T10:58:41;26.10;47.80
18085;DHT22;9169;44.492;11.372;2022-10-17T11:01:17;26.10;48.00
18085;DHT22;9169;44.492;11.372;2022-10-17T11:03:55;26.00;47.90
18085;DHT22;9169;44.492;11.372;2022-10-17T11:06:28;26.00;47.90
18085;DHT22;9169;44.492;11.372;2022-10-17T11:09:10;26.00;47.90
18085;DHT22;9169;44.492;11.372;2022-10-17T11:11:42;25.90;48.00
18085;DHT22;9169;44.492;11.372;2022-10-17T11:14:15;25.90;48.20
18085;DHT22;9169;44.492;11.372;2022-10-17T11:16:52;25.90;48.30
18085;DHT22;9169;44.492;11.372;2022-10-17T11:19:24;26.00;48.40
18085;DHT22;9169;44.492;11.372;2022-10-17T11:22:03;26.00;48.50
18085;DHT22;9169;44.492;11.372;2022-10-17T11:24:36;26.00;48.50
18085;DHT22;9169;44.492;11.372;2022-10-17T11:27:06;26.00;48.50
18085;DHT22;9169;44.492;11.372;2022-10-17T11:29:34;26.00;48.60
18085;DHT22;9169;44.492;11.372;2022-10-17T11:32:11;26.00;48.60
18085;DHT22;9169;44.492;11.372;2022-10-17T11:34:42;26.10;48.60
18085;DHT22;9169;44.492;11.372;2022-10-17T11:37:15;26.10;48.50
18085;DHT22;9169;44.492;11.372;2022-10-17T11:39:46;26.10;48.60
18085;DHT22;9169;44.492;11.372;2022-10-17T11:42:17;26.10;48.50
18085;DHT22;9169;44.492;11.372;2022-10-17T11:44:47;26.10;48.50
18085;DHT22;9169;44.492;11.372;2022-10-17T11:47:35;26.10;48.40
18085;DHT22;9169;44.492;11.372;2022-10-17T11:50:10;26.00;48.60
18085;DHT22;9169;44.492;11.372;2022-10-17T11:52:42;26.00;48.60
18085;DHT22;9169;44.492;11.372;2022-10-17T11:55:16;26.00;48.80
18085;DHT22;9169;44.492;11.372;2022-10-17T11:57:53;26.10;48.60
18085;DHT22;9169;44.492;11.372;2022-10-17T12:00:26;26.10;48.70
18085;DHT22;9169;44.492;11.372;2022-10-17T12:03:06;26.10;48.50
18085;DHT22;9169;44.492;11.372;2022-10-17T12:05:43;26.10;48.50
18085;DHT22;9169;44.492;11.372;2022-10-17T12:08:19;26.10;48.40
18085;DHT22;9169;44.492;11.372;2022-10-17T12:10:55;26.20;48.50
18085;DHT22;9169;44.492;11.372;2022-10-17T12:13:50;26.20;48.50
18085;DHT22;9169;44.492;11.372;2022-10-17T12:16:42;26.20;48.40
18085;DHT22;9169;44.492;11.372;2022-10-17T12:19:31;26.20;48.30
18085;DHT22;9169;44.492;11.372;2022-10-17T12:22:03;26.20;48.20
18085;DHT22;9169;44.492;11.372;2022-10-17T12:24:40;26.20;48.70
18085;DHT22;9169;44.492;11.372;2022-10-17T12:27:22;26.20;48.00
18085;DHT22;9169;44.492;11.372;2022-10-17T12:29:50;26.20;47.90
18085;DHT22;9169;44.492;11.372;2022-10-17T12:32:24;26.30;48.40
18085;DHT22;9169;44.492;11.372;2022-10-17T12:34:52;26.30;47.80
18085;DHT22;9169;44.492;11.372;2022-10-17T12:38:03;26.30;47.80
18085;DHT22;9169;44.492;11.372;2022-10-17T12:41:00;26.40;48.00
18085;DHT22;9169;44.492;11.372;2022-10-17T12:43:52;26.70;48.80
18085;DHT22;9169;44.492;11.372;2022-10-17T12:46:45;27.40;49.90
18085;DHT22;9169;44.492;11.372;2022-10-17T12:52:24;29.60;48.90
18085;DHT22;9169;44.492;11.372;2022-10-17T12:54:54;30.60;47.10
18085;DHT22;9169;44.492;11.372;2022-10-17T12:57:29;31.40;47.10
18085;DHT22;9169;44.492;11.372;2022-10-17T12:59:56;32.30;45.60
18085;DHT22;9169;44.492;11.372;2022-10-17T13:02:26;33.10;44.30
18085;DHT22;9169;44.492;11.372;2022-10-17T13:05:02;33.80;42.90
18085;DHT22;9169;44.492;11.372;2022-10-17T13:07:32;34.50;42.30
18085;DHT22;9169;44.492;11.372;2022-10-17T13:10:00;35.10;40.80
18085;DHT22;9169;44.492;11.372;2022-10-17T13:12:33;35.60;40.50
18085;DHT22;9169;44.492;11.372;2022-10-17T13:15:05;36.20;39.20
18085;DHT22;9169;44.492;11.372;2022-10-17T13:17:33;36.50;38.10
18085;DHT22;9169;44.492;11.372;2022-10-17T13:20:00;36.80;38.00
18085;DHT22;9169;44.492;11.372;2022-10-17T13:22:29;37.10;37.80
18085;DHT22;9169;44.492;11.372;2022-10-17T13:25:06;37.40;35.90
18085;DHT22;9169;44.492;11.372;2022-10-17T13:27:36;37.50;35.40
18085;DHT22;9169;44.492;11.372;2022-10-17T13:30:21;37.70;35.50
18085;DHT22;9169;44.492;11.372;2022-10-17T13:32:48;38.00;35.20
18085;DHT22;9169;44.492;11.372;2022-10-17T13:35:21;38.10;34.40
18085;DHT22;9169;44.492;11.372;2022-10-17T13:37:49;38.20;34.60
18085;DHT22;9169;44.492;11.372;2022-10-17T13:40:18;38.50;34.20
18085;DHT22;9169;44.492;11.372;2022-10-17T13:42:47;38.60;33.30
18085;DHT22;9169;44.492;11.372;2022-10-17T13:45:18;38.60;33.10
18085;DHT22;9169;44.492;11.372;2022-10-17T13:47:46;38.30;32.20
18085;DHT22;9169;44.492;11.372;2022-10-17T13:50:20;37.90;32.20
18085;DHT22;9169;44.492;11.372;2022-10-17T13:52:49;37.40;31.60
18085;DHT22;9169;44.492;11.372;2022-10-17T13:55:30;36.80;32.00
18085;DHT22;9169;44.492;11.372;2022-10-17T13:58:13;36.30;32.40
18085;DHT22;9169;44.492;11.372;2022-10-17T14:00:41;35.70;32.70
18085;DHT22;9169;44.492;11.372;2022-10-17T14:03:08;35.30;32.90
18085;DHT22;9169;44.492;11.372;2022-10-17T14:06:06;34.80;33.30
18085;DHT22;9169;44.492;11.372;2022-10-17T14:08:36;34.20;34.30
18085;DHT22;9169;44.492;11.372;2022-10-17T14:11:21;33.80;34.50
18085;DHT22;9169;44.492;11.372;2022-10-17T14:13:52;33.50;35.10
18085;DHT22;9169;44.492;11.372;2022-10-17T14:16:20;33.10;35.30
18085;DHT22;9169;44.492;11.372;2022-10-17T14:18:48;32.80;35.40
18085;DHT22;9169;44.492;11.372;2022-10-17T14:21:21;32.50;35.60
18085;DHT22;9169;44.492;11.372;2022-10-17T14:23:49;32.30;35.80
18085;DHT22;9169;44.492;11.372;2022-10-17T14:26:17;32.00;36.00
18085;DHT22;9169;44.492;11.372;2022-10-17T14:28:47;31.70;36.10
18085;DHT22;9169;44.492;11.372;2022-10-17T14:31:28;31.40;36.40
18085;DHT22;9169;44.492;11.372;2022-10-17T14:33:56;31.20;36.70
18085;DHT22;9169;44.492;11.372;2022-10-17T14:36:31;31.00;37.00
18085;DHT22;9169;44.492;11.372;2022-10-17T14:38:59;30.80;37.00
18085;DHT22;9169;44.492;11.372;2022-10-17T14:41:30;30.60;37.90
18085;DHT22;9169;44.492;11.372;2022-10-17T14:43:59;30.40;37.40
18085;DHT22;9169;44.492;11.372;2022-10-17T14:46:29;30.30;37.70
18085;DHT22;9169;44.492;11.372;2022-10-17T14:49:05;30.10;38.00
18085;DHT22;9169;44.492;11.372;2022-10-17T14:51:33;30.00;38.10
18085;DHT22;9169;44.492;11.372;2022-10-17T14:54:12;29.90;38.30
18085;DHT22;9169;44.492;11.372;2022-10-17T14:56:42;29.70;38.20
18085;DHT22;9169;44.492;11.372;2022-10-17T14:59:14;29.60;38.70
18085;DHT22;9169;44.492;11.372;2022-10-17T15:01:45;29.40;38.80
18085;DHT22;9169;44.492;11.372;2022-10-17T15:04:12;29.30;38.90
18085;DHT22;9169;44.492;11.372;2022-10-17T15:06:38;29.20;39.00
18085;DHT22;9169;44.492;11.372;2022-10-17T15:09:06;29.10;39.10
18085;DHT22;9169;44.492;11.372;2022-10-17T15:11:33;29.10;39.20
18085;DHT22;9169;44.492;11.372;2022-10-17T15:13:59;29.00;39.40
18085;DHT22;9169;44.492;11.372;2022-10-17T15:16:30;28.90;39.60
18085;DHT22;9169;44.492;11.372;2022-10-17T15:18:59;28.80;39.70
18085;DHT22;9169;44.492;11.372;2022-10-17T15:21:28;28.70;39.90
18085;DHT22;9169;44.492;11.372;2022-10-17T15:23:55;28.60;40.00
18085;DHT22;9169;44.492;11.372;2022-10-17T15:26:25;28.50;40.20
18085;DHT22;9169;44.492;11.372;2022-10-17T15:28:52;28.40;40.30
18085;DHT22;9169;44.492;11.372;2022-10-17T15:31:21;28.40;40.40
18085;DHT22;9169;44.492;11.372;2022-10-17T15:33:49;28.30;40.50
18085;DHT22;9169;44.492;11.372;2022-10-17T15:36:21;28.30;40.60
18085;DHT22;9169;44.492;11.372;2022-10-17T15:38:48;28.20;40.60
18085;DHT22;9169;44.492;11.372;2022-10-17T15:41:17;28.10;40.80
18085;DHT22;9169;44.492;11.372;2022-10-17T15:43:43;28.00;40.80
18085;DHT22;9169;44.492;11.372;2022-10-17T15:46:13;28.00;41.00
18085;DHT22;9169;44.492;11.372;2022-10-17T15:48:40;27.90;41.00
18085;DHT22;9169;44.492;11.372;2022-10-17T15:51:08;27.90;41.10
18085;DHT22;9169;44.492;11.372;2022-10-17T15:53:36;27.80;41.20
18085;DHT22;9169;44.492;11.372;2022-10-17T15:56:04;27.80;41.30
18085;DHT22;9169;44.492;11.372;2022-10-17T15:58:36;27.70;41.40
18085;DHT22;9169;44.492;11.372;2022-10-17T16:01:05;27.70;41.60
18085;DHT22;9169;44.492;11.372;2022-10-17T16:03:32;27.60;41.60